Nanwalek, Alaska
Current Conditions -  °F | °C
As of 7:53 PM on Wednesday 26 Nov 2014 (Local Time) from PAHO Reporting Station
Clear Clear  
Wind Chill: 24°   Ceiling: Unl
Heat Index: 30°   Visibility: 10mi
Dew Point: 25°   Wind: 6mph
Humidity: 82%   Direction: 50°NE
Pressure: 30.27"   Gusts: NA
Location:  59.7153°N, 150.773°W
Report Text: PAHO 270453Z AUTO 05005KT 10SM CLR M01/M04 A3027 RMK AO2 SLP250 T10111039 TSNO
Loading
Personal Weather Stations






























Interactive Weather Map New forecast layout! Learn more

10-Day Weather Forecast

Advertisements
Track Severe Weather on mobile